sensor_id;sensor_type;location;lat;lon;timestamp;noise_LAeq;noise_LA_min;noise_LA_max;noise_LA01;noise_LA95
75037;Laerm;64247;51.540;5.854;2023-05-10T00:00:44;46.49;44.36;62.67;;
75037;Laerm;64247;51.540;5.854;2023-05-10T00:02:45;46.30;44.33;58.43;;
75037;Laerm;64247;51.540;5.854;2023-05-10T00:04:46;46.18;44.33;59.37;;
75037;Laerm;64247;51.540;5.854;2023-05-10T00:06:47;46.09;44.14;59.57;;
75037;Laerm;64247;51.540;5.854;2023-05-10T00:08:47;46.62;44.13;61.15;;
75037;Laerm;64247;51.540;5.854;2023-05-10T00:10:49;47.17;44.15;55.77;;
75037;Laerm;64247;51.540;5.854;2023-05-10T00:12:50;47.79;44.24;66.28;;
75037;Laerm;64247;51.540;5.854;2023-05-10T00:14:50;46.14;43.96;56.31;;
75037;Laerm;64247;51.540;5.854;2023-05-10T00:16:51;47.12;43.89;65.62;;
75037;Laerm;64247;51.540;5.854;2023-05-10T00:18:52;46.20;44.05;61.28;;
75037;Laerm;64247;51.540;5.854;2023-05-10T00:20:53;47.31;44.41;56.44;;
75037;Laerm;64247;51.540;5.854;2023-05-10T00:22:54;46.23;44.16;58.57;;
75037;Laerm;64247;51.540;5.854;2023-05-10T00:24:55;46.09;44.15;60.39;;
75037;Laerm;64247;51.540;5.854;2023-05-10T00:26:56;45.99;44.05;55.04;;
75037;Laerm;64247;51.540;5.854;2023-05-10T00:28:57;45.90;44.03;58.98;;
75037;Laerm;64247;51.540;5.854;2023-05-10T00:30:59;46.77;44.40;55.90;;
75037;Laerm;64247;51.540;5.854;2023-05-10T00:33:00;46.22;44.22;51.41;;
75037;Laerm;64247;51.540;5.854;2023-05-10T00:35:01;46.03;44.25;47.84;;
75037;Laerm;64247;51.540;5.854;2023-05-10T00:37:01;45.95;43.99;55.25;;
75037;Laerm;64247;51.540;5.854;2023-05-10T00:39:03;46.13;44.32;49.03;;
75037;Laerm;64247;51.540;5.854;2023-05-10T00:41:04;46.06;44.02;55.25;;
75037;Laerm;64247;51.540;5.854;2023-05-10T00:43:08;45.75;43.88;48.61;;
75037;Laerm;64247;51.540;5.854;2023-05-10T00:45:09;46.05;44.22;49.48;;
75037;Laerm;64247;51.540;5.854;2023-05-10T00:47:10;46.11;43.90;56.11;;
75037;Laerm;64247;51.540;5.854;2023-05-10T00:49:12;45.92;43.95;48.80;;
75037;Laerm;64247;51.540;5.854;2023-05-10T00:51:13;45.74;43.26;49.92;;
75037;Laerm;64247;51.540;5.854;2023-05-10T00:53:15;45.67;43.79;62.46;;
75037;Laerm;64247;51.540;5.854;2023-05-10T00:55:16;48.53;43.82;60.15;;
75037;Laerm;64247;51.540;5.854;2023-05-10T00:57:18;46.16;43.55;51.87;;
75037;Laerm;64247;51.540;5.854;2023-05-10T00:59:20;45.96;44.10;48.03;;
75037;Laerm;64247;51.540;5.854;2023-05-10T01:01:22;45.81;44.01;60.58;;
75037;Laerm;64247;51.540;5.854;2023-05-10T01:03:23;45.67;43.53;47.45;;
75037;Laerm;64247;51.540;5.854;2023-05-10T01:05:24;45.70;44.00;47.55;;
75037;Laerm;64247;51.540;5.854;2023-05-10T01:07:26;47.13;44.17;54.61;;
75037;Laerm;64247;51.540;5.854;2023-05-10T01:09:27;45.92;44.14;48.76;;
75037;Laerm;64247;51.540;5.854;2023-05-10T01:11:28;48.36;44.43;61.65;;
75037;Laerm;64247;51.540;5.854;2023-05-10T01:13:55;47.66;44.06;58.33;;
75037;Laerm;64247;51.540;5.854;2023-05-10T01:15:57;45.79;43.73;47.98;;
75037;Laerm;64247;51.540;5.854;2023-05-10T01:18:00;47.29;44.17;55.47;;
75037;Laerm;64247;51.540;5.854;2023-05-10T01:20:02;46.00;43.98;52.25;;
75037;Laerm;64247;51.540;5.854;2023-05-10T01:31:33;45.68;43.65;47.81;;
75037;Laerm;64247;51.540;5.854;2023-05-10T01:33:56;46.38;44.13;53.38;;
75037;Laerm;64247;51.540;5.854;2023-05-10T01:36:36;50.74;44.58;61.70;;
75037;Laerm;64247;51.540;5.854;2023-05-10T01:42:05;45.81;43.80;51.87;;
75037;Laerm;64247;51.540;5.854;2023-05-10T01:44:37;45.74;43.96;47.72;;
75037;Laerm;64247;51.540;5.854;2023-05-10T01:46:40;48.92;44.22;57.60;;
75037;Laerm;64247;51.540;5.854;2023-05-10T01:48:53;46.63;43.90;57.61;;
75037;Laerm;64247;51.540;5.854;2023-05-10T01:50:56;46.17;43.79;51.56;;
75037;Laerm;64247;51.540;5.854;2023-05-10T01:53:01;51.76;43.63;61.96;;
75037;Laerm;64247;51.540;5.854;2023-05-10T01:55:10;45.56;43.69;48.05;;
75037;Laerm;64247;51.540;5.854;2023-05-10T01:57:14;46.94;43.95;56.81;;
75037;Laerm;64247;51.540;5.854;2023-05-10T01:59:20;46.87;43.63;59.08;;
75037;Laerm;64247;51.540;5.854;2023-05-10T02:01:23;53.14;43.50;64.40;;
75037;Laerm;64247;51.540;5.854;2023-05-10T02:03:29;45.78;43.59;50.60;;
75037;Laerm;64247;51.540;5.854;2023-05-10T02:05:32;50.06;44.01;59.72;;
75037;Laerm;64247;51.540;5.854;2023-05-10T02:07:38;47.03;43.54;57.29;;
75037;Laerm;64247;51.540;5.854;2023-05-10T02:09:45;46.24;43.75;53.04;;
75037;Laerm;64247;51.540;5.854;2023-05-10T02:11:50;45.90;44.12;48.74;;
75037;Laerm;64247;51.540;5.854;2023-05-10T02:13:52;45.73;43.79;50.08;;
75037;Laerm;64247;51.540;5.854;2023-05-10T02:16:01;46.84;43.33;56.59;;
75037;Laerm;64247;51.540;5.854;2023-05-10T02:18:05;48.48;44.10;60.70;;
75037;Laerm;64247;51.540;5.854;2023-05-10T02:20:07;46.90;43.92;53.82;;
75037;Laerm;64247;51.540;5.854;2023-05-10T02:22:10;48.44;43.98;56.79;;
75037;Laerm;64247;51.540;5.854;2023-05-10T02:24:13;48.94;44.56;57.76;;
75037;Laerm;64247;51.540;5.854;2023-05-10T02:26:16;46.90;44.06;54.52;;
75037;Laerm;64247;51.540;5.854;2023-05-10T02:28:21;48.06;44.03;58.94;;
75037;Laerm;64247;51.540;5.854;2023-05-10T02:30:24;52.22;43.74;63.90;;
75037;Laerm;64247;51.540;5.854;2023-05-10T02:32:27;50.02;43.68;63.00;;
75037;Laerm;64247;51.540;5.854;2023-05-10T02:34:31;46.83;43.83;57.01;;
75037;Laerm;64247;51.540;5.854;2023-05-10T02:36:33;51.83;44.35;64.41;;
75037;Laerm;64247;51.540;5.854;2023-05-10T02:38:36;46.12;44.27;51.74;;
75037;Laerm;64247;51.540;5.854;2023-05-10T02:40:38;48.26;44.21;58.56;;
75037;Laerm;64247;51.540;5.854;2023-05-10T02:42:42;50.66;44.52;64.14;;
75037;Laerm;64247;51.540;5.854;2023-05-10T02:44:48;48.98;44.99;57.77;;
75037;Laerm;64247;51.540;5.854;2023-05-10T02:46:51;48.62;44.83;54.52;;
75037;Laerm;64247;51.540;5.854;2023-05-10T02:48:52;45.98;43.72;48.65;;
75037;Laerm;64247;51.540;5.854;2023-05-10T02:50:56;49.37;43.71;60.69;;
75037;Laerm;64247;51.540;5.854;2023-05-10T02:53:10;46.01;43.83;54.37;;
75037;Laerm;64247;51.540;5.854;2023-05-10T02:55:15;48.84;43.76;55.80;;
75037;Laerm;64247;51.540;5.854;2023-05-10T02:57:26;48.20;43.74;58.92;;
75037;Laerm;64247;51.540;5.854;2023-05-10T02:59:28;48.20;44.10;58.53;;
75037;Laerm;64247;51.540;5.854;2023-05-10T03:01:29;48.33;44.11;60.08;;
75037;Laerm;64247;51.540;5.854;2023-05-10T03:03:30;48.61;44.21;61.12;;
75037;Laerm;64247;51.540;5.854;2023-05-10T03:05:32;53.80;44.00;69.71;;
75037;Laerm;64247;51.540;5.854;2023-05-10T03:07:36;58.81;44.38;77.02;;
75037;Laerm;64247;51.540;5.854;2023-05-10T03:09:37;60.40;44.66;77.99;;
75037;Laerm;64247;51.540;5.854;2023-05-10T03:12:15;61.76;44.76;78.90;;
75037;Laerm;64247;51.540;5.854;2023-05-10T03:17:45;61.90;44.99;77.89;;
75037;Laerm;64247;51.540;5.854;2023-05-10T03:19:57;60.68;45.77;80.01;;
75037;Laerm;64247;51.540;5.854;2023-05-10T03:22:08;55.86;46.41;71.89;;
75037;Laerm;64247;51.540;5.854;2023-05-10T03:24:13;57.96;45.69;77.86;;
75037;Laerm;64247;51.540;5.854;2023-05-10T03:26:27;63.62;46.11;79.29;;
75037;Laerm;64247;51.540;5.854;2023-05-10T03:28:38;62.90;45.81;78.85;;
75037;Laerm;64247;51.540;5.854;2023-05-10T03:30:42;62.15;47.92;80.12;;
75037;Laerm;64247;51.540;5.854;2023-05-10T03:32:45;54.12;45.63;67.55;;
75037;Laerm;64247;51.540;5.854;2023-05-10T03:34:47;60.21;47.06;78.62;;
75037;Laerm;64247;51.540;5.854;2023-05-10T03:36:47;59.92;47.57;78.67;;
75037;Laerm;64247;51.540;5.854;2023-05-10T03:38:48;59.70;47.40;78.79;;
75037;Laerm;64247;51.540;5.854;2023-05-10T03:40:50;57.11;48.60;73.75;;
75037;Laerm;64247;51.540;5.854;2023-05-10T03:42:51;57.05;47.66;66.05;;
75037;Laerm;64247;51.540;5.854;2023-05-10T03:44:52;56.74;47.62;66.39;;
75037;Laerm;64247;51.540;5.854;2023-05-10T03:46:52;57.16;47.59;72.44;;
75037;Laerm;64247;51.540;5.854;2023-05-10T03:48:53;54.98;46.40;65.51;;
75037;Laerm;64247;51.540;5.854;2023-05-10T03:50:54;56.11;47.62;64.93;;
75037;Laerm;64247;51.540;5.854;2023-05-10T03:52:55;56.57;47.87;68.79;;
75037;Laerm;64247;51.540;5.854;2023-05-10T03:54:56;56.33;45.94;68.20;;
75037;Laerm;64247;51.540;5.854;2023-05-10T03:56:58;56.65;46.63;70.98;;
75037;Laerm;64247;51.540;5.854;2023-05-10T03:58:59;51.99;46.28;60.56;;
75037;Laerm;64247;51.540;5.854;2023-05-10T04:01:00;54.56;45.83;67.95;;
75037;Laerm;64247;51.540;5.854;2023-05-10T04:03:01;54.75;45.94;68.10;;
75037;Laerm;64247;51.540;5.854;2023-05-10T04:05:02;56.63;47.92;64.76;;
75037;Laerm;64247;51.540;5.854;2023-05-10T04:07:03;55.23;45.93;65.13;;
75037;Laerm;64247;51.540;5.854;2023-05-10T04:09:04;52.55;44.96;61.90;;
75037;Laerm;64247;51.540;5.854;2023-05-10T04:11:10;51.71;45.42;59.44;;
75037;Laerm;64247;51.540;5.854;2023-05-10T04:13:11;52.64;45.24;60.18;;
75037;Laerm;64247;51.540;5.854;2023-05-10T04:15:12;52.72;47.52;61.13;;
75037;Laerm;64247;51.540;5.854;2023-05-10T04:17:13;55.48;49.47;61.62;;
75037;Laerm;64247;51.540;5.854;2023-05-10T04:19:14;54.42;47.23;61.64;;
75037;Laerm;64247;51.540;5.854;2023-05-10T04:21:15;52.75;45.57;62.38;;
75037;Laerm;64247;51.540;5.854;2023-05-10T04:23:15;54.10;48.80;61.55;;
75037;Laerm;64247;51.540;5.854;2023-05-10T04:25:17;53.76;49.19;59.02;;
75037;Laerm;64247;51.540;5.854;2023-05-10T04:27:18;55.41;49.54;65.62;;
75037;Laerm;64247;51.540;5.854;2023-05-10T04:29:18;54.08;49.01;60.47;;
75037;Laerm;64247;51.540;5.854;2023-05-10T04:31:19;54.35;49.34;65.88;;
75037;Laerm;64247;51.540;5.854;2023-05-10T04:33:20;54.43;49.51;61.71;;
75037;Laerm;64247;51.540;5.854;2023-05-10T04:35:21;55.73;50.32;63.33;;
75037;Laerm;64247;51.540;5.854;2023-05-10T04:37:22;55.59;48.35;64.33;;
75037;Laerm;64247;51.540;5.854;2023-05-10T04:39:23;54.67;49.22;59.29;;
75037;Laerm;64247;51.540;5.854;2023-05-10T04:41:24;57.15;52.08;64.31;;
75037;Laerm;64247;51.540;5.854;2023-05-10T04:43:26;56.08;49.37;61.58;;
75037;Laerm;64247;51.540;5.854;2023-05-10T04:45:27;57.34;52.39;64.00;;
75037;Laerm;64247;51.540;5.854;2023-05-10T04:47:27;55.46;49.92;62.13;;
75037;Laerm;64247;51.540;5.854;2023-05-10T04:49:29;54.11;48.51;60.40;;
75037;Laerm;64247;51.540;5.854;2023-05-10T04:51:30;56.12;50.82;61.55;;
75037;Laerm;64247;51.540;5.854;2023-05-10T04:53:32;54.19;48.16;61.95;;
75037;Laerm;64247;51.540;5.854;2023-05-10T04:55:33;56.09;47.96;62.90;;
75037;Laerm;64247;51.540;5.854;2023-05-10T04:57:33;54.72;50.68;60.77;;
75037;Laerm;64247;51.540;5.854;2023-05-10T04:59:36;56.35;51.66;63.97;;
75037;Laerm;64247;51.540;5.854;2023-05-10T05:01:38;56.25;50.83;61.93;;
75037;Laerm;64247;51.540;5.854;2023-05-10T05:03:39;57.23;52.67;66.50;;
75037;Laerm;64247;51.540;5.854;2023-05-10T05:05:39;54.34;47.63;61.00;;
75037;Laerm;64247;51.540;5.854;2023-05-10T05:07:40;55.98;48.82;62.88;;
75037;Laerm;64247;51.540;5.854;2023-05-10T05:09:41;65.96;48.46;81.86;;
75037;Laerm;64247;51.540;5.854;2023-05-10T05:11:42;57.20;50.44;71.82;;
75037;Laerm;64247;51.540;5.854;2023-05-10T05:13:43;57.16;51.50;70.87;;
75037;Laerm;64247;51.540;5.854;2023-05-10T05:15:44;56.07;50.74;68.59;;
75037;Laerm;64247;51.540;5.854;2023-05-10T05:17:45;56.89;51.31;76.38;;
75037;Laerm;64247;51.540;5.854;2023-05-10T05:19:46;57.09;51.57;64.47;;
75037;Laerm;64247;51.540;5.854;2023-05-10T05:21:47;57.27;52.61;67.90;;
75037;Laerm;64247;51.540;5.854;2023-05-10T05:23:48;58.26;53.26;66.45;;
75037;Laerm;64247;51.540;5.854;2023-05-10T05:25:48;55.87;49.16;65.47;;
75037;Laerm;64247;51.540;5.854;2023-05-10T05:27:49;56.02;49.52;65.02;;
75037;Laerm;64247;51.540;5.854;2023-05-10T05:29:53;57.72;52.34;69.87;;
75037;Laerm;64247;51.540;5.854;2023-05-10T05:31:53;56.53;51.09;63.20;;
75037;Laerm;64247;51.540;5.854;2023-05-10T05:33:54;56.49;51.35;65.37;;
75037;Laerm;64247;51.540;5.854;2023-05-10T05:35:56;59.54;53.27;68.40;;
75037;Laerm;64247;51.540;5.854;2023-05-10T05:37:57;63.89;52.42;74.21;;
75037;Laerm;64247;51.540;5.854;2023-05-10T05:39:58;57.24;52.12;64.94;;
75037;Laerm;64247;51.540;5.854;2023-05-10T05:41:59;56.78;52.34;65.08;;
75037;Laerm;64247;51.540;5.854;2023-05-10T05:43:59;58.09;54.19;62.93;;
75037;Laerm;64247;51.540;5.854;2023-05-10T05:46:00;58.27;53.55;67.69;;
75037;Laerm;64247;51.540;5.854;2023-05-10T05:48:01;58.90;53.52;68.56;;
75037;Laerm;64247;51.540;5.854;2023-05-10T05:50:02;59.96;54.13;69.09;;
75037;Laerm;64247;51.540;5.854;2023-05-10T05:52:04;59.36;55.02;68.76;;
75037;Laerm;64247;51.540;5.854;2023-05-10T05:54:05;57.48;52.20;65.00;;
75037;Laerm;64247;51.540;5.854;2023-05-10T05:56:05;57.64;51.80;67.82;;
75037;Laerm;64247;51.540;5.854;2023-05-10T05:58:06;56.78;51.50;62.03;;
75037;Laerm;64247;51.540;5.854;2023-05-10T06:00:08;56.19;49.77;69.33;;
75037;Laerm;64247;51.540;5.854;2023-05-10T06:02:14;56.75;50.16;68.02;;
75037;Laerm;64247;51.540;5.854;2023-05-10T06:04:16;57.27;51.97;64.38;;
75037;Laerm;64247;51.540;5.854;2023-05-10T06:06:17;55.71;50.35;62.78;;
75037;Laerm;64247;51.540;5.854;2023-05-10T06:08:18;56.41;51.22;64.68;;
75037;Laerm;64247;51.540;5.854;2023-05-10T06:10:18;56.00;49.60;66.76;;
75037;Laerm;64247;51.540;5.854;2023-05-10T06:12:19;55.84;49.74;61.32;;
75037;Laerm;64247;51.540;5.854;2023-05-10T06:14:21;56.90;52.87;61.79;;
75037;Laerm;64247;51.540;5.854;2023-05-10T06:16:22;58.53;52.42;69.85;;
75037;Laerm;64247;51.540;5.854;2023-05-10T06:18:22;56.51;51.47;64.88;;
75037;Laerm;64247;51.540;5.854;2023-05-10T06:20:23;56.25;52.10;69.16;;
75037;Laerm;64247;51.540;5.854;2023-05-10T06:22:24;55.56;50.62;61.05;;
75037;Laerm;64247;51.540;5.854;2023-05-10T06:24:25;54.43;48.50;64.48;;
75037;Laerm;64247;51.540;5.854;2023-05-10T06:26:27;55.89;49.65;66.39;;
75037;Laerm;64247;51.540;5.854;2023-05-10T06:28:28;55.06;50.45;62.76;;
75037;Laerm;64247;51.540;5.854;2023-05-10T06:30:29;56.25;50.84;63.78;;
75037;Laerm;64247;51.540;5.854;2023-05-10T06:32:30;55.54;50.79;62.72;;
75037;Laerm;64247;51.540;5.854;2023-05-10T06:34:31;55.25;49.47;61.44;;
75037;Laerm;64247;51.540;5.854;2023-05-10T06:36:32;55.73;48.20;62.47;;
75037;Laerm;64247;51.540;5.854;2023-05-10T06:38:32;56.14;50.13;63.01;;
75037;Laerm;64247;51.540;5.854;2023-05-10T06:40:33;55.71;48.19;64.99;;
75037;Laerm;64247;51.540;5.854;2023-05-10T06:42:34;54.90;47.78;64.19;;
75037;Laerm;64247;51.540;5.854;2023-05-10T06:44:37;54.57;47.77;62.05;;
75037;Laerm;64247;51.540;5.854;2023-05-10T06:46:38;55.25;48.73;60.55;;
75037;Laerm;64247;51.540;5.854;2023-05-10T06:48:38;54.69;47.77;63.52;;
75037;Laerm;64247;51.540;5.854;2023-05-10T06:50:39;52.54;47.05;65.95;;
75037;Laerm;64247;51.540;5.854;2023-05-10T06:52:40;55.05;49.26;64.49;;
75037;Laerm;64247;51.540;5.854;2023-05-10T06:54:41;54.03;49.58;60.53;;
75037;Laerm;64247;51.540;5.854;2023-05-10T06:56:42;52.50;47.69;66.77;;
75037;Laerm;64247;51.540;5.854;2023-05-10T06:58:43;55.60;50.53;64.94;;
75037;Laerm;64247;51.540;5.854;2023-05-10T07:00:44;54.17;48.18;66.75;;
75037;Laerm;64247;51.540;5.854;2023-05-10T07:02:46;55.22;48.05;63.10;;
75037;Laerm;64247;51.540;5.854;2023-05-10T07:04:47;54.94;47.99;61.58;;
75037;Laerm;64247;51.540;5.854;2023-05-10T07:06:48;64.70;52.48;69.31;;
75037;Laerm;64247;51.540;5.854;2023-05-10T07:08:50;67.13;60.81;72.47;;
75037;Laerm;64247;51.540;5.854;2023-05-10T07:10:51;59.31;50.13;65.45;;
75037;Laerm;64247;51.540;5.854;2023-05-10T07:12:51;54.49;46.49;63.86;;
75037;Laerm;64247;51.540;5.854;2023-05-10T07:14:52;59.15;47.57;75.81;;
75037;Laerm;64247;51.540;5.854;2023-05-10T07:16:53;58.09;51.99;68.21;;
75037;Laerm;64247;51.540;5.854;2023-05-10T07:18:54;60.17;52.84;68.76;;
75037;Laerm;64247;51.540;5.854;2023-05-10T07:20:57;53.62;48.62;63.96;;
75037;Laerm;64247;51.540;5.854;2023-05-10T07:22:58;60.36;50.49;67.75;;
75037;Laerm;64247;51.540;5.854;2023-05-10T07:24:59;57.27;52.11;68.71;;
75037;Laerm;64247;51.540;5.854;2023-05-10T07:27:00;64.15;53.77;74.41;;
75037;Laerm;64247;51.540;5.854;2023-05-10T07:29:00;62.69;54.40;72.54;;
75037;Laerm;64247;51.540;5.854;2023-05-10T07:31:01;54.84;49.65;64.09;;
75037;Laerm;64247;51.540;5.854;2023-05-10T07:33:02;55.39;48.67;67.12;;
75037;Laerm;64247;51.540;5.854;2023-05-10T07:35:03;54.66;50.63;62.19;;
75037;Laerm;64247;51.540;5.854;2023-05-10T07:37:05;55.08;48.47;64.76;;
75037;Laerm;64247;51.540;5.854;2023-05-10T07:39:06;54.28;47.87;69.37;;
75037;Laerm;64247;51.540;5.854;2023-05-10T07:41:08;54.87;48.96;68.14;;
75037;Laerm;64247;51.540;5.854;2023-05-10T07:43:08;55.02;49.49;63.09;;
75037;Laerm;64247;51.540;5.854;2023-05-10T07:45:10;54.26;47.26;64.12;;
75037;Laerm;64247;51.540;5.854;2023-05-10T07:47:10;52.95;47.67;66.37;;
75037;Laerm;64247;51.540;5.854;2023-05-10T07:49:12;54.17;49.96;63.29;;
75037;Laerm;64247;51.540;5.854;2023-05-10T07:51:13;54.32;49.64;63.69;;
75037;Laerm;64247;51.540;5.854;2023-05-10T07:53:14;53.30;47.29;61.67;;
75037;Laerm;64247;51.540;5.854;2023-05-10T07:55:14;52.18;47.45;60.24;;
75037;Laerm;64247;51.540;5.854;2023-05-10T07:57:16;53.70;49.26;59.57;;
75037;Laerm;64247;51.540;5.854;2023-05-10T07:59:18;54.50;49.94;60.48;;
75037;Laerm;64247;51.540;5.854;2023-05-10T08:01:19;53.06;48.77;60.35;;
75037;Laerm;64247;51.540;5.854;2023-05-10T08:03:20;52.02;47.81;60.88;;
75037;Laerm;64247;51.540;5.854;2023-05-10T08:05:21;51.95;47.73;60.36;;
75037;Laerm;64247;51.540;5.854;2023-05-10T08:07:24;53.61;47.58;62.94;;
75037;Laerm;64247;51.540;5.854;2023-05-10T08:09:25;52.98;48.54;60.90;;
75037;Laerm;64247;51.540;5.854;2023-05-10T08:11:26;53.08;48.69;61.84;;
75037;Laerm;64247;51.540;5.854;2023-05-10T08:13:28;52.64;47.91;58.92;;
75037;Laerm;64247;51.540;5.854;2023-05-10T08:15:29;54.92;48.09;65.03;;
75037;Laerm;64247;51.540;5.854;2023-05-10T08:17:30;54.13;47.67;65.04;;
75037;Laerm;64247;51.540;5.854;2023-05-10T08:19:30;52.77;46.40;61.31;;
75037;Laerm;64247;51.540;5.854;2023-05-10T08:21:31;55.81;48.62;71.23;;
75037;Laerm;64247;51.540;5.854;2023-05-10T08:23:33;56.41;48.09;72.53;;
75037;Laerm;64247;51.540;5.854;2023-05-10T08:25:34;56.32;49.55;64.64;;
75037;Laerm;64247;51.540;5.854;2023-05-10T08:27:34;54.70;50.16;62.16;;
75037;Laerm;64247;51.540;5.854;2023-05-10T08:29:35;53.55;47.00;67.88;;
75037;Laerm;64247;51.540;5.854;2023-05-10T08:31:36;55.14;46.87;68.28;;
75037;Laerm;64247;51.540;5.854;2023-05-10T08:33:37;56.00;50.82;65.41;;
75037;Laerm;64247;51.540;5.854;2023-05-10T08:35:38;55.12;47.38;64.94;;
75037;Laerm;64247;51.540;5.854;2023-05-10T08:37:39;55.84;48.31;67.15;;
75037;Laerm;64247;51.540;5.854;2023-05-10T08:39:40;55.01;49.16;65.25;;
75037;Laerm;64247;51.540;5.854;2023-05-10T08:41:44;53.70;47.88;63.30;;
75037;Laerm;64247;51.540;5.854;2023-05-10T08:43:45;59.20;47.41;72.47;;
75037;Laerm;64247;51.540;5.854;2023-05-10T08:45:48;53.90;49.30;60.08;;
75037;Laerm;64247;51.540;5.854;2023-05-10T08:47:52;54.45;49.99;60.14;;
75037;Laerm;64247;51.540;5.854;2023-05-10T08:49:54;61.53;50.79;74.83;;
75037;Laerm;64247;51.540;5.854;2023-05-10T08:51:57;60.03;50.61;72.25;;
75037;Laerm;64247;51.540;5.854;2023-05-10T08:54:01;56.27;47.67;73.30;;
75037;Laerm;64247;51.540;5.854;2023-05-10T08:56:02;53.81;47.60;69.11;;
75037;Laerm;64247;51.540;5.854;2023-05-10T08:58:07;55.41;46.94;67.19;;
75037;Laerm;64247;51.540;5.854;2023-05-10T09:00:09;53.41;47.78;67.04;;
75037;Laerm;64247;51.540;5.854;2023-05-10T09:02:13;54.97;48.81;63.50;;
75037;Laerm;64247;51.540;5.854;2023-05-10T09:04:14;59.99;50.93;69.92;;
75037;Laerm;64247;51.540;5.854;2023-05-10T09:06:15;63.03;50.06;83.71;;
75037;Laerm;64247;51.540;5.854;2023-05-10T09:08:17;53.29;47.83;66.19;;
75037;Laerm;64247;51.540;5.854;2023-05-10T09:10:20;64.12;48.00;76.71;;
75037;Laerm;64247;51.540;5.854;2023-05-10T09:12:21;58.54;46.93;70.99;;
75037;Laerm;64247;51.540;5.854;2023-05-10T09:14:24;54.21;48.66;61.46;;
75037;Laerm;64247;51.540;5.854;2023-05-10T09:16:25;56.16;49.67;70.24;;
75037;Laerm;64247;51.540;5.854;2023-05-10T09:18:26;51.23;47.46;59.94;;
75037;Laerm;64247;51.540;5.854;2023-05-10T09:20:28;57.92;48.48;66.28;;
75037;Laerm;64247;51.540;5.854;2023-05-10T09:22:30;60.50;50.88;69.30;;
75037;Laerm;64247;51.540;5.854;2023-05-10T09:24:31;59.95;54.69;67.85;;
75037;Laerm;64247;51.540;5.854;2023-05-10T09:26:32;60.46;50.96;76.67;;
75037;Laerm;64247;51.540;5.854;2023-05-10T09:28:53;54.38;49.15;67.01;;
75037;Laerm;64247;51.540;5.854;2023-05-10T09:30:54;55.32;49.68;66.61;;
75037;Laerm;64247;51.540;5.854;2023-05-10T09:32:58;60.18;57.25;65.78;;
75037;Laerm;64247;51.540;5.854;2023-05-10T09:35:10;60.04;56.44;67.17;;
75037;Laerm;64247;51.540;5.854;2023-05-10T09:37:11;59.99;56.70;65.30;;
75037;Laerm;64247;51.540;5.854;2023-05-10T09:39:12;67.33;53.54;78.61;;
75037;Laerm;64247;51.540;5.854;2023-05-10T09:41:22;57.37;51.20;65.07;;
75037;Laerm;64247;51.540;5.854;2023-05-10T09:43:23;55.87;48.81;64.71;;
75037;Laerm;64247;51.540;5.854;2023-05-10T09:45:27;59.65;50.16;74.13;;
75037;Laerm;64247;51.540;5.854;2023-05-10T09:47:28;57.41;51.05;67.37;;
75037;Laerm;64247;51.540;5.854;2023-05-10T09:49:30;56.67;50.06;63.44;;
75037;Laerm;64247;51.540;5.854;2023-05-10T09:51:31;57.70;51.76;67.73;;
75037;Laerm;64247;51.540;5.854;2023-05-10T09:53:32;56.71;50.45;66.51;;
75037;Laerm;64247;51.540;5.854;2023-05-10T09:55:45;55.27;49.30;62.94;;
75037;Laerm;64247;51.540;5.854;2023-05-10T09:57:47;64.28;48.45;78.23;;
75037;Laerm;64247;51.540;5.854;2023-05-10T09:59:49;56.16;48.33;74.25;;
75037;Laerm;64247;51.540;5.854;2023-05-10T10:01:52;56.47;47.72;66.04;;
75037;Laerm;64247;51.540;5.854;2023-05-10T10:03:53;53.65;48.02;60.62;;
75037;Laerm;64247;51.540;5.854;2023-05-10T10:05:54;55.11;47.42;62.75;;
75037;Laerm;64247;51.540;5.854;2023-05-10T10:08:03;56.55;47.26;73.11;;
75037;Laerm;64247;51.540;5.854;2023-05-10T10:10:05;52.83;46.95;63.90;;
75037;Laerm;64247;51.540;5.854;2023-05-10T10:12:06;55.95;47.50;72.19;;
75037;Laerm;64247;51.540;5.854;2023-05-10T10:14:07;55.79;47.72;72.29;;
75037;Laerm;64247;51.540;5.854;2023-05-10T10:16:08;56.54;47.03;71.09;;
75037;Laerm;64247;51.540;5.854;2023-05-10T10:18:13;57.05;46.65;72.66;;
75037;Laerm;64247;51.540;5.854;2023-05-10T10:20:17;60.03;49.80;76.69;;
75037;Laerm;64247;51.540;5.854;2023-05-10T10:22:18;56.17;48.14;72.57;;
75037;Laerm;64247;51.540;5.854;2023-05-10T10:24:19;54.25;47.04;66.69;;
75037;Laerm;64247;51.540;5.854;2023-05-10T10:26:21;53.85;47.46;68.80;;
75037;Laerm;64247;51.540;5.854;2023-05-10T10:34:16;51.14;46.33;64.04;;
75037;Laerm;64247;51.540;5.854;2023-05-10T10:36:20;55.09;47.68;68.33;;
75037;Laerm;64247;51.540;5.854;2023-05-10T10:38:21;54.25;46.67;72.53;;
75037;Laerm;64247;51.540;5.854;2023-05-10T10:40:47;54.03;47.67;67.51;;
75037;Laerm;64247;51.540;5.854;2023-05-10T10:42:48;52.94;46.78;65.08;;
75037;Laerm;64247;51.540;5.854;2023-05-10T10:45:12;54.05;47.78;65.93;;
75037;Laerm;64247;51.540;5.854;2023-05-10T10:47:33;55.13;46.26;67.74;;
75037;Laerm;64247;51.540;5.854;2023-05-10T10:50:19;55.83;47.92;67.70;;
75037;Laerm;64247;51.540;5.854;2023-05-10T10:52:33;52.13;47.78;58.00;;
75037;Laerm;64247;51.540;5.854;2023-05-10T10:54:35;52.30;45.77;71.05;;
75037;Laerm;64247;51.540;5.854;2023-05-10T10:56:36;52.51;45.96;60.30;;
75037;Laerm;64247;51.540;5.854;2023-05-10T10:58:38;53.22;48.16;60.24;;
75037;Laerm;64247;51.540;5.854;2023-05-10T11:00:39;54.14;48.69;61.91;;
75037;Laerm;64247;51.540;5.854;2023-05-10T11:03:06;52.67;46.44;59.65;;
75037;Laerm;64247;51.540;5.854;2023-05-10T11:05:43;50.77;45.84;60.50;;
75037;Laerm;64247;51.540;5.854;2023-05-10T11:08:17;53.51;47.76;67.98;;
75037;Laerm;64247;51.540;5.854;2023-05-10T11:10:25;54.57;49.23;63.97;;
75037;Laerm;64247;51.540;5.854;2023-05-10T11:12:26;59.43;48.98;70.68;;
75037;Laerm;64247;51.540;5.854;2023-05-10T11:14:27;55.32;48.58;66.74;;
75037;Laerm;64247;51.540;5.854;2023-05-10T11:16:44;55.27;49.09;68.37;;
75037;Laerm;64247;51.540;5.854;2023-05-10T11:19:09;53.51;46.66;68.39;;
75037;Laerm;64247;51.540;5.854;2023-05-10T11:21:10;59.04;49.11;75.84;;
75037;Laerm;64247;51.540;5.854;2023-05-10T11:23:14;59.98;49.83;74.71;;
75037;Laerm;64247;51.540;5.854;2023-05-10T11:25:19;58.57;48.53;76.78;;
75037;Laerm;64247;51.540;5.854;2023-05-10T11:27:21;57.28;48.58;72.34;;
75037;Laerm;64247;51.540;5.854;2023-05-10T11:29:22;57.92;48.51;76.14;;
75037;Laerm;64247;51.540;5.854;2023-05-10T11:31:23;57.82;48.45;72.45;;
75037;Laerm;64247;51.540;5.854;2023-05-10T11:33:27;55.33;48.24;69.36;;
75037;Laerm;64247;51.540;5.854;2023-05-10T11:35:28;54.49;49.51;63.98;;
75037;Laerm;64247;51.540;5.854;2023-05-10T11:37:29;54.77;49.19;71.26;;
75037;Laerm;64247;51.540;5.854;2023-05-10T11:39:34;56.23;49.54;69.39;;
75037;Laerm;64247;51.540;5.854;2023-05-10T11:41:35;55.45;50.46;66.82;;
75037;Laerm;64247;51.540;5.854;2023-05-10T11:43:36;54.29;49.15;65.84;;
75037;Laerm;64247;51.540;5.854;2023-05-10T11:45:41;53.21;48.34;63.16;;
75037;Laerm;64247;51.540;5.854;2023-05-10T11:47:42;54.32;48.31;60.49;;
75037;Laerm;64247;51.540;5.854;2023-05-10T11:49:45;53.78;49.48;61.20;;
75037;Laerm;64247;51.540;5.854;2023-05-10T11:51:46;51.94;47.67;56.76;;